Time;durP1;ratioP1;P1;durP2;ratioP2;P2;SDS_P1;SDS_P2;PMS_P1;PMS_P2;Temp;Humidity;BMP_temperature;BMP_pressure;BME280_temperature;BME280_humidity;BME280_pressure;Samples;Min_cycle;Max_cycle;Signal;HPM_P1;HPM_P2
2023/05/22 00:00:39;;;;;;;32.53;15.80;;;12.80;99.90;;;;;;4956632;28;20203;-59
2023/05/22 00:03:09;;;;;;;33.23;15.73;;;12.80;99.90;;;;;;4957307;28;20227;-59
2023/05/22 00:05:39;;;;;;;34.87;16.17;;;12.80;99.90;;;;;;4959764;28;20711;-59
2023/05/22 00:08:10;;;;;;;38.93;16.53;;;12.80;99.90;;;;;;4962576;28;20219;-59
2023/05/22 00:10:39;;;;;;;35.63;17.03;;;12.80;99.90;;;;;;4959486;28;20598;-58
2023/05/22 00:13:08;;;;;;;34.03;17.73;;;12.70;99.90;;;;;;4957127;28;20228;-59
2023/05/22 00:15:36;;;;;;;38.23;17.60;;;12.70;99.90;;;;;;4955070;28;20192;-58
2023/05/22 00:18:05;;;;;;;40.90;18.53;;;12.80;99.90;;;;;;4956166;28;20220;-59
2023/05/22 00:20:37;;;;;;;45.27;19.83;;;12.70;99.90;;;;;;4956357;28;20252;-59
2023/05/22 00:23:08;;;;;;;42.53;19.07;;;12.70;99.90;;;;;;4946201;28;20221;-58
2023/05/22 00:25:39;;;;;;;50.97;21.03;;;12.70;99.90;;;;;;4949042;28;20219;-59
2023/05/22 00:28:08;;;;;;;40.77;22.57;;;12.70;99.90;;;;;;4955762;28;20314;-59
2023/05/22 00:30:37;;;;;;;46.60;22.07;;;12.70;99.90;;;;;;4950038;28;20192;-59
2023/05/22 00:33:05;;;;;;;40.80;22.27;;;12.70;99.90;;;;;;4955649;28;20292;-59
2023/05/22 00:35:34;;;;;;;46.27;22.77;;;12.70;99.90;;;;;;4936898;28;20241;-59
2023/05/22 00:38:04;;;;;;;45.67;22.67;;;12.70;99.90;;;;;;4956305;28;20235;-59
2023/05/22 00:40:32;;;;;;;47.63;24.40;;;12.70;99.90;;;;;;4956200;28;20236;-59
2023/05/22 00:43:07;;;;;;;51.77;24.80;;;12.70;99.90;;;;;;4954965;28;20220;-59
2023/05/22 00:45:35;;;;;;;47.97;24.77;;;12.60;99.90;;;;;;4971286;28;20203;-59
2023/05/22 00:48:04;;;;;;;49.70;23.93;;;12.70;99.90;;;;;;4954157;29;20196;-59
2023/05/22 00:50:33;;;;;;;50.53;24.80;;;12.60;99.90;;;;;;4955699;28;20223;-59
2023/05/22 00:53:01;;;;;;;47.47;24.40;;;12.60;99.90;;;;;;4955787;28;20234;-59
2023/05/22 00:55:30;;;;;;;50.10;25.17;;;12.60;99.90;;;;;;4955813;28;20251;-59
2023/05/22 00:57:59;;;;;;;56.53;26.10;;;12.60;99.90;;;;;;4956020;28;20235;-59
2023/05/22 01:00:28;;;;;;;56.87;27.57;;;12.60;99.90;;;;;;4955658;28;20199;-59
2023/05/22 01:02:57;;;;;;;58.10;28.50;;;12.60;99.90;;;;;;4956463;28;20202;-59
2023/05/22 01:05:25;;;;;;;62.33;28.47;;;12.60;99.90;;;;;;4954256;28;20692;-59
2023/05/22 01:07:53;;;;;;;60.67;29.63;;;12.60;99.90;;;;;;4955121;28;20232;-59
2023/05/22 01:10:22;;;;;;;73.83;32.13;;;12.70;99.90;;;;;;4955143;28;20240;-59
2023/05/22 01:13:00;;;;;;;77.17;33.10;;;12.70;99.90;;;;;;4957350;28;20230;-59
2023/05/22 01:15:35;;;;;;;72.27;35.47;;;12.70;99.90;;;;;;4948962;28;20214;-59
2023/05/22 01:18:11;;;;;;;86.10;36.33;;;12.70;99.90;;;;;;4944267;29;20224;-59
2023/05/22 01:20:47;;;;;;;93.30;37.23;;;12.70;99.90;;;;;;4953864;28;20231;-59
2023/05/22 01:23:43;;;;;;;90.40;37.33;;;12.70;99.90;;;;;;4955150;28;20702;-59
2023/05/22 01:26:43;;;;;;;90.03;38.90;;;12.70;99.90;;;;;;4954463;28;20230;-60
2023/05/22 01:29:35;;;;;;;91.93;38.87;;;12.80;99.90;;;;;;4937857;28;20223;-59
2023/05/22 01:32:07;;;;;;;101.60;39.27;;;12.80;99.90;;;;;;4946528;28;20228;-59
2023/05/22 01:34:37;;;;;;;88.30;38.23;;;12.80;99.90;;;;;;4954910;28;20348;-59
2023/05/22 01:37:06;;;;;;;93.30;39.33;;;12.80;99.90;;;;;;4954645;28;20228;-59
2023/05/22 01:39:35;;;;;;;99.87;39.90;;;12.80;99.90;;;;;;4958420;28;20214;-59
2023/05/22 01:42:04;;;;;;;101.37;38.63;;;12.90;99.90;;;;;;4953701;28;20204;-59
2023/05/22 01:44:33;;;;;;;111.97;41.13;;;12.90;99.90;;;;;;4949457;28;20236;-59
2023/05/22 01:47:04;;;;;;;98.13;40.30;;;12.90;99.90;;;;;;4961725;28;20224;-59
2023/05/22 01:49:35;;;;;;;108.80;42.17;;;12.90;99.90;;;;;;4948303;28;20230;-59
2023/05/22 01:52:12;;;;;;;111.57;41.77;;;12.90;99.90;;;;;;4954689;28;20232;-59
2023/05/22 01:54:45;;;;;;;108.43;43.07;;;12.90;99.90;;;;;;4954849;28;20199;-59
2023/05/22 01:57:20;;;;;;;114.20;43.47;;;12.90;99.90;;;;;;4966616;28;20200;-59
2023/05/22 01:59:54;;;;;;;115.80;43.80;;;12.90;99.90;;;;;;4955204;28;20222;-60
2023/05/22 02:02:24;;;;;;;105.77;42.97;;;12.90;99.90;;;;;;4954535;28;20472;-59
2023/05/22 02:04:59;;;;;;;128.97;46.00;;;12.90;99.90;;;;;;4959610;28;20310;-59
2023/05/22 02:07:30;;;;;;;122.93;47.20;;;13.00;99.90;;;;;;4955706;28;20231;-59
2023/05/22 02:09:59;;;;;;;117.57;43.43;;;13.00;99.90;;;;;;4954579;28;20227;-60
2023/05/22 02:12:28;;;;;;;134.60;48.30;;;13.00;99.90;;;;;;4954348;28;20220;-59
2023/05/22 02:14:57;;;;;;;131.23;47.53;;;13.00;99.90;;;;;;4955182;28;20563;-59
2023/05/22 02:17:26;;;;;;;126.10;47.07;;;13.00;99.90;;;;;;4959431;28;20331;-58
2023/05/22 02:19:55;;;;;;;118.83;46.33;;;13.00;99.90;;;;;;4969360;28;20724;-59
2023/05/22 02:22:23;;;;;;;127.10;46.23;;;13.00;99.90;;;;;;4952116;28;20238;-59
2023/05/22 02:24:52;;;;;;;119.87;45.33;;;13.00;99.90;;;;;;4954389;28;20220;-59
2023/05/22 02:27:20;;;;;;;117.00;45.43;;;13.00;99.90;;;;;;4954716;28;20196;-58
2023/05/22 02:29:48;;;;;;;124.53;46.90;;;13.00;99.90;;;;;;4954412;28;20208;-60
2023/05/22 02:32:17;;;;;;;114.57;44.17;;;13.00;99.90;;;;;;4954485;28;20242;-60
2023/05/22 02:34:47;;;;;;;124.80;46.33;;;13.00;99.90;;;;;;4947932;28;20236;-59
2023/05/22 02:37:16;;;;;;;115.63;42.87;;;12.90;99.90;;;;;;4948598;28;20583;-60
2023/05/22 02:39:45;;;;;;;108.20;44.30;;;13.00;99.90;;;;;;4943785;28;20232;-59
2023/05/22 02:42:13;;;;;;;134.77;46.77;;;13.00;99.90;;;;;;4955041;28;20200;-59
2023/05/22 02:44:41;;;;;;;116.57;44.40;;;13.00;99.90;;;;;;4954662;28;20231;-59
2023/05/22 02:47:09;;;;;;;123.33;44.87;;;13.00;99.90;;;;;;4954305;28;20228;-59
2023/05/22 02:49:38;;;;;;;121.07;46.80;;;13.00;99.90;;;;;;4964315;28;20224;-59
2023/05/22 02:52:06;;;;;;;129.57;48.33;;;12.90;99.90;;;;;;4954435;28;20687;-59
2023/05/22 02:54:36;;;;;;;124.83;47.57;;;12.90;99.90;;;;;;4952545;28;20197;-60
2023/05/22 02:57:04;;;;;;;128.40;50.17;;;12.80;99.90;;;;;;4953847;28;20219;-60
2023/05/22 02:59:34;;;;;;;116.37;47.87;;;12.80;99.90;;;;;;4953621;28;20692;-59
2023/05/22 03:02:03;;;;;;;129.50;49.43;;;12.90;99.90;;;;;;4957971;28;20222;-59
2023/05/22 03:04:31;;;;;;;118.03;45.27;;;12.90;99.90;;;;;;4946509;28;20266;-60
2023/05/22 03:07:00;;;;;;;128.47;47.17;;;12.90;99.90;;;;;;4959834;28;20238;-58
2023/05/22 03:09:29;;;;;;;123.50;47.17;;;12.90;99.90;;;;;;4957605;28;20180;-59
2023/05/22 03:11:58;;;;;;;126.57;46.27;;;12.90;99.90;;;;;;4959376;28;20223;-59
2023/05/22 03:14:27;;;;;;;120.43;46.77;;;12.90;99.90;;;;;;4953429;28;20226;-59
2023/05/22 03:16:57;;;;;;;134.90;47.23;;;12.90;99.90;;;;;;4939359;28;20311;-59
2023/05/22 03:19:26;;;;;;;134.93;47.63;;;12.90;99.90;;;;;;4956248;28;20282;-60
2023/05/22 03:21:54;;;;;;;144.43;48.67;;;12.90;99.90;;;;;;4957373;28;20228;-59
2023/05/22 03:24:22;;;;;;;136.20;48.80;;;12.80;99.90;;;;;;4964497;28;20223;-59
2023/05/22 03:26:51;;;;;;;129.83;48.77;;;12.80;99.90;;;;;;4967928;28;20539;-59
2023/05/22 03:29:20;;;;;;;121.33;45.23;;;12.80;99.90;;;;;;4956863;28;20266;-59
2023/05/22 03:31:49;;;;;;;128.47;47.23;;;12.80;99.90;;;;;;4957507;28;20212;-59
2023/05/22 03:34:17;;;;;;;127.27;47.47;;;12.90;99.90;;;;;;4956847;28;20239;-59
2023/05/22 03:36:45;;;;;;;121.23;44.90;;;12.90;99.90;;;;;;4951706;28;20680;-59
2023/05/22 03:39:14;;;;;;;134.97;47.90;;;12.90;99.90;;;;;;4955944;28;20228;-59
2023/05/22 03:41:42;;;;;;;129.13;46.87;;;12.90;99.90;;;;;;4954477;29;20224;-59
2023/05/22 03:44:10;;;;;;;124.57;45.07;;;12.90;99.90;;;;;;4957080;28;20230;-59
2023/05/22 03:46:40;;;;;;;121.93;46.23;;;12.90;99.90;;;;;;4956922;28;20220;-59
2023/05/22 03:49:08;;;;;;;120.43;44.23;;;12.90;99.90;;;;;;4961140;28;20219;-59
2023/05/22 03:51:36;;;;;;;122.47;45.83;;;12.90;99.90;;;;;;4960192;28;20188;-59
2023/05/22 03:54:05;;;;;;;125.97;44.57;;;12.90;99.90;;;;;;4957454;28;20192;-58
2023/05/22 03:56:34;;;;;;;118.60;44.47;;;12.90;99.90;;;;;;4956604;28;20228;-58
2023/05/22 03:59:02;;;;;;;122.53;43.70;;;12.90;99.90;;;;;;4956743;28;20250;-59
2023/05/22 04:01:31;;;;;;;119.33;43.33;;;12.90;99.90;;;;;;4956091;28;20228;-59
2023/05/22 04:04:00;;;;;;;106.43;41.23;;;12.90;99.90;;;;;;4957011;28;20224;-59
2023/05/22 04:06:31;;;;;;;106.70;40.97;;;12.90;99.90;;;;;;4956423;28;20195;-59
2023/05/22 04:09:00;;;;;;;110.20;41.77;;;12.90;99.90;;;;;;4956835;28;20547;-58
2023/05/22 04:11:30;;;;;;;102.10;39.17;;;12.90;99.90;;;;;;4956144;28;20720;-59
2023/05/22 04:14:03;;;;;;;102.33;39.97;;;13.00;99.90;;;;;;4956122;28;20212;-58
2023/05/22 04:16:32;;;;;;;101.90;39.27;;;13.00;99.90;;;;;;4955213;28;20717;-59
2023/05/22 04:19:02;;;;;;;102.37;40.20;;;13.00;99.90;;;;;;4960511;28;20243;-59
2023/05/22 04:21:32;;;;;;;82.80;36.47;;;13.00;99.90;;;;;;4949800;28;20312;-59
2023/05/22 04:24:05;;;;;;;93.80;38.30;;;13.00;99.90;;;;;;4956720;28;20519;-59
2023/05/22 04:26:34;;;;;;;93.37;39.27;;;13.00;99.90;;;;;;4956099;28;20319;-59
2023/05/22 04:29:05;;;;;;;88.53;38.50;;;13.10;99.90;;;;;;4954492;28;20311;-60
2023/05/22 04:31:33;;;;;;;86.33;38.83;;;13.10;99.90;;;;;;4954832;28;20250;-59
2023/05/22 04:34:04;;;;;;;90.20;38.23;;;13.10;99.90;;;;;;4957676;28;20224;-59
2023/05/22 04:36:32;;;;;;;91.97;40.27;;;13.20;99.90;;;;;;4956275;28;20524;-59
2023/05/22 04:39:03;;;;;;;90.10;37.30;;;13.20;99.90;;;;;;4956576;28;20200;-59
2023/05/22 04:41:33;;;;;;;93.90;39.67;;;13.20;99.90;;;;;;4955889;28;20231;-59
2023/05/22 04:44:02;;;;;;;89.73;39.40;;;13.20;99.90;;;;;;4955913;28;20303;-59
2023/05/22 04:46:31;;;;;;;94.60;40.90;;;13.30;99.90;;;;;;4955537;28;20228;-59
2023/05/22 04:49:00;;;;;;;87.70;40.80;;;13.30;99.90;;;;;;4961255;28;20223;-59
2023/05/22 04:51:31;;;;;;;83.07;40.27;;;13.30;99.90;;;;;;4955526;28;20200;-58
2023/05/22 04:54:00;;;;;;;95.07;40.67;;;13.30;99.90;;;;;;4963616;28;20196;-59
2023/05/22 04:56:29;;;;;;;90.77;40.03;;;13.20;99.90;;;;;;4955172;28;20223;-58
2023/05/22 04:59:07;;;;;;;79.63;38.70;;;13.20;99.90;;;;;;4955545;28;20251;-59
2023/05/22 05:01:36;;;;;;;84.73;41.30;;;13.20;99.90;;;;;;4955567;28;20238;-59
2023/05/22 05:04:05;;;;;;;88.00;40.73;;;13.30;99.90;;;;;;4956035;28;20699;-59
2023/05/22 05:06:36;;;;;;;88.43;41.67;;;13.20;99.90;;;;;;4955025;28;20583;-59
2023/05/22 05:09:05;;;;;;;84.17;39.43;;;13.20;99.90;;;;;;4964147;28;20195;-58
2023/05/22 05:11:34;;;;;;;92.43;41.93;;;13.30;99.90;;;;;;4948608;28;20311;-59
2023/05/22 05:14:02;;;;;;;88.13;40.83;;;13.30;99.90;;;;;;4955118;28;20232;-59
2023/05/22 05:16:30;;;;;;;90.27;40.40;;;13.30;99.90;;;;;;4955235;28;20717;-59
2023/05/22 05:18:59;;;;;;;80.40;39.70;;;13.20;99.90;;;;;;4947995;28;20338;-59
2023/05/22 05:21:27;;;;;;;88.23;41.33;;;13.20;99.90;;;;;;4965108;28;20253;-59
2023/05/22 05:23:57;;;;;;;97.30;41.77;;;13.20;99.90;;;;;;4972526;28;20203;-59
2023/05/22 05:26:26;;;;;;;89.40;41.13;;;13.20;99.90;;;;;;4956474;28;20220;-59
2023/05/22 05:28:55;;;;;;;96.53;42.20;;;13.20;99.90;;;;;;4956082;28;20544;-59
2023/05/22 05:31:23;;;;;;;94.07;42.43;;;13.20;99.90;;;;;;4949760;28;20227;-59
2023/05/22 05:33:55;;;;;;;98.73;41.57;;;13.20;99.90;;;;;;4954362;28;20231;-59
2023/05/22 05:36:24;;;;;;;98.97;42.30;;;13.20;99.90;;;;;;4953988;28;20614;-59
2023/05/22 05:38:53;;;;;;;100.57;42.63;;;13.20;99.90;;;;;;4956720;28;20219;-59
2023/05/22 05:41:22;;;;;;;94.23;41.80;;;13.20;99.90;;;;;;4954390;28;20224;-59
2023/05/22 05:43:51;;;;;;;91.57;41.63;;;13.20;99.90;;;;;;4958991;28;20225;-59
2023/05/22 05:46:20;;;;;;;92.37;40.63;;;13.20;99.90;;;;;;4954734;28;20223;-59
2023/05/22 05:48:48;;;;;;;85.73;41.27;;;13.20;99.90;;;;;;4960994;28;20223;-59
2023/05/22 05:51:16;;;;;;;89.00;41.23;;;13.20;99.90;;;;;;4956463;28;20196;-59
2023/05/22 05:53:44;;;;;;;82.07;39.47;;;13.30;99.90;;;;;;4954281;28;20238;-59
2023/05/22 05:56:13;;;;;;;81.60;38.97;;;13.20;99.90;;;;;;4954087;28;20242;-59
2023/05/22 05:58:43;;;;;;;80.47;38.23;;;13.30;99.90;;;;;;4958794;28;20220;-59
2023/05/22 06:01:11;;;;;;;86.17;37.90;;;13.30;99.90;;;;;;4954681;28;20228;-59
2023/05/22 06:03:40;;;;;;;78.97;36.83;;;13.40;99.90;;;;;;4954382;28;20188;-59
2023/05/22 06:06:09;;;;;;;77.43;36.63;;;13.50;99.90;;;;;;4967491;28;20218;-59
2023/05/22 06:08:38;;;;;;;83.50;34.73;;;13.50;99.90;;;;;;4956474;28;20254;-60
2023/05/22 06:11:06;;;;;;;77.10;36.33;;;13.50;99.90;;;;;;4964748;28;20224;-59
2023/05/22 06:13:34;;;;;;;74.93;35.17;;;13.50;99.90;;;;;;4954239;28;20602;-59
2023/05/22 06:16:05;;;;;;;72.37;33.77;;;13.50;99.90;;;;;;4947375;28;20287;-59
2023/05/22 06:18:34;;;;;;;70.80;33.60;;;13.50;99.90;;;;;;4943042;28;20200;-59
2023/05/22 06:21:02;;;;;;;64.47;32.07;;;13.50;99.90;;;;;;4954627;28;20220;-60
2023/05/22 06:23:31;;;;;;;59.53;31.17;;;13.50;99.90;;;;;;4954307;28;20211;-58
2023/05/22 06:25:59;;;;;;;60.83;31.70;;;13.50;99.90;;;;;;4954180;28;20333;-59
2023/05/22 06:28:27;;;;;;;66.07;30.87;;;13.50;99.90;;;;;;4954753;28;20224;-59
2023/05/22 06:30:56;;;;;;;64.30;30.47;;;13.50;99.90;;;;;;4954203;28;20617;-59
2023/05/22 06:33:26;;;;;;;60.73;31.73;;;13.50;99.90;;;;;;4954139;28;20640;-59
2023/05/22 06:35:55;;;;;;;65.73;32.23;;;13.50;99.90;;;;;;4955296;28;20232;-59
2023/05/22 06:38:23;;;;;;;66.57;31.83;;;13.60;99.90;;;;;;4966436;28;20230;-59
2023/05/22 06:40:52;;;;;;;69.47;32.47;;;13.60;99.90;;;;;;4964320;28;20235;-58
2023/05/22 06:43:20;;;;;;;75.20;31.90;;;13.70;99.90;;;;;;4958282;28;20259;-59
2023/05/22 06:45:48;;;;;;;58.10;30.47;;;13.70;99.90;;;;;;4974600;28;20231;-59
2023/05/22 06:48:17;;;;;;;58.73;31.60;;;13.80;99.90;;;;;;4959062;28;20591;-59
2023/05/22 06:50:47;;;;;;;62.97;30.97;;;13.80;99.90;;;;;;4957800;28;20220;-59
2023/05/22 06:53:15;;;;;;;63.70;31.17;;;13.90;99.90;;;;;;4958101;28;20226;-59
2023/05/22 06:55:43;;;;;;;65.73;30.63;;;14.00;99.90;;;;;;4961546;28;20216;-60
2023/05/22 06:58:12;;;;;;;53.93;28.27;;;14.00;99.90;;;;;;4951167;28;20224;-60
2023/05/22 07:00:40;;;;;;;52.60;27.50;;;14.10;99.90;;;;;;4958010;28;20666;-59
2023/05/22 07:03:09;;;;;;;55.90;28.27;;;14.10;99.90;;;;;;4958266;28;20201;-60
2023/05/22 07:05:37;;;;;;;54.90;26.50;;;14.10;99.90;;;;;;4961623;28;20289;-59
2023/05/22 07:08:08;;;;;;;45.93;25.77;;;14.10;99.90;;;;;;4958078;28;20244;-59
2023/05/22 07:10:36;;;;;;;44.30;24.77;;;14.20;99.90;;;;;;4957893;28;20227;-59
2023/05/22 07:13:05;;;;;;;48.67;24.97;;;14.20;99.90;;;;;;4957743;28;20224;-59
2023/05/22 07:15:33;;;;;;;44.73;24.33;;;14.30;99.90;;;;;;4957556;28;20679;-59
2023/05/22 07:18:02;;;;;;;50.33;25.90;;;14.40;99.90;;;;;;4957584;28;20208;-59
2023/05/22 07:20:30;;;;;;;52.67;25.37;;;14.40;99.90;;;;;;4972674;28;20315;-59
2023/05/22 07:22:58;;;;;;;48.73;26.40;;;14.40;99.90;;;;;;4966953;28;20272;-60
2023/05/22 07:25:28;;;;;;;59.87;28.20;;;14.40;99.90;;;;;;4966786;28;20562;-59
2023/05/22 07:27:57;;;;;;;59.90;27.90;;;14.40;99.90;;;;;;4955318;28;20577;-59
2023/05/22 07:30:25;;;;;;;55.43;26.80;;;14.40;99.90;;;;;;4957388;28;20196;-59
2023/05/22 07:32:54;;;;;;;57.50;26.87;;;14.40;99.90;;;;;;4957951;28;20255;-59
2023/05/22 07:35:22;;;;;;;49.70;26.60;;;14.40;99.90;;;;;;4957089;28;20624;-59
2023/05/22 07:37:51;;;;;;;61.73;27.97;;;14.40;99.90;;;;;;4956941;28;20229;-59
2023/05/22 07:40:20;;;;;;;58.63;27.37;;;14.40;99.90;;;;;;4956870;28;20228;-59
2023/05/22 07:42:49;;;;;;;55.93;26.47;;;14.40;99.90;;;;;;4949046;28;20588;-59
2023/05/22 07:45:18;;;;;;;55.30;28.60;;;14.40;99.90;;;;;;4943914;29;20200;-59
2023/05/22 07:47:46;;;;;;;45.47;26.43;;;14.30;99.90;;;;;;4948187;28;20576;-59
2023/05/22 07:50:15;;;;;;;52.63;26.93;;;14.40;99.90;;;;;;4957228;28;20596;-59
2023/05/22 07:52:44;;;;;;;63.03;27.47;;;14.40;99.90;;;;;;4956839;28;20311;-59
2023/05/22 07:55:12;;;;;;;50.63;27.60;;;14.40;99.90;;;;;;4956639;28;20308;-59
2023/05/22 07:57:42;;;;;;;54.20;26.40;;;14.50;99.90;;;;;;4956812;28;20547;-59
2023/05/22 08:00:13;;;;;;;50.93;27.27;;;14.60;99.90;;;;;;4957454;28;20196;-59
2023/05/22 08:02:41;;;;;;;48.40;26.73;;;14.70;99.90;;;;;;4956530;28;20584;-59
2023/05/22 08:05:11;;;;;;;46.20;25.90;;;14.80;99.90;;;;;;4956252;28;20227;-62
2023/05/22 08:07:40;;;;;;;55.07;27.03;;;14.90;99.90;;;;;;4956444;28;20235;-59
2023/05/22 08:10:14;;;;;;;54.00;26.90;;;14.80;99.90;;;;;;4956573;28;20636;-59
2023/05/22 08:12:43;;;;;;;55.27;28.37;;;14.80;99.90;;;;;;4955072;28;20204;-59
2023/05/22 08:15:13;;;;;;;49.53;25.43;;;14.70;99.90;;;;;;4947699;28;20197;-59
2023/05/22 08:17:41;;;;;;;44.73;26.10;;;14.80;99.90;;;;;;4955331;28;20717;-59
2023/05/22 08:20:10;;;;;;;53.00;26.43;;;14.80;99.90;;;;;;4958461;28;20322;-59
2023/05/22 08:22:40;;;;;;;57.33;27.67;;;14.90;99.90;;;;;;4955974;28;20243;-59
2023/05/22 08:25:09;;;;;;;50.77;26.73;;;14.90;99.90;;;;;;4956495;28;20324;-59
2023/05/22 08:27:37;;;;;;;48.67;26.13;;;15.00;99.90;;;;;;4957890;28;20259;-59
2023/05/22 08:30:07;;;;;;;53.30;27.87;;;15.00;99.90;;;;;;4951794;29;20207;-59
2023/05/22 08:32:37;;;;;;;52.07;27.93;;;15.00;99.90;;;;;;4942242;28;20300;-59
2023/05/22 08:35:06;;;;;;;52.27;28.50;;;15.00;99.90;;;;;;4955663;28;20291;-59
2023/05/22 08:38:13;;;;;;;60.30;29.07;;;15.00;99.90;;;;;;4955969;28;20228;-59
2023/05/22 08:41:02;;;;;;;48.63;26.87;;;15.00;99.90;;;;;;4952658;28;20229;-58
2023/05/22 08:43:30;;;;;;;47.90;26.00;;;15.20;99.90;;;;;;4937090;28;20241;-59
2023/05/22 08:46:00;;;;;;;55.43;28.90;;;15.20;99.90;;;;;;4951896;28;20705;-59
2023/05/22 08:48:32;;;;;;;54.47;27.37;;;15.20;99.90;;;;;;4955936;28;20227;-59
2023/05/22 08:51:04;;;;;;;61.27;28.20;;;15.30;99.90;;;;;;4963134;28;20539;-59
2023/05/22 08:53:35;;;;;;;54.57;28.77;;;15.30;99.90;;;;;;4958957;28;20225;-59
2023/05/22 08:56:05;;;;;;;53.67;27.63;;;15.40;99.90;;;;;;4955990;28;20774;-59
2023/05/22 08:58:36;;;;;;;57.07;27.27;;;15.40;99.90;;;;;;4961960;28;20231;-59
2023/05/22 09:01:06;;;;;;;59.70;27.80;;;15.40;99.90;;;;;;4971045;28;20226;-59
2023/05/22 09:03:36;;;;;;;69.23;28.97;;;15.50;99.90;;;;;;4965895;28;20303;-59
2023/05/22 09:06:09;;;;;;;60.50;29.43;;;15.60;99.90;;;;;;4969180;28;20246;-59
2023/05/22 09:08:38;;;;;;;57.10;28.23;;;15.60;99.90;;;;;;4944726;28;20227;-59
2023/05/22 09:11:06;;;;;;;55.17;27.17;;;15.60;99.90;;;;;;4955225;28;20239;-60
2023/05/22 09:13:34;;;;;;;56.93;29.40;;;15.70;99.90;;;;;;4951755;28;20220;-59
2023/05/22 09:16:10;;;;;;;64.13;31.13;;;15.80;99.90;;;;;;4952570;28;20715;-59
2023/05/22 09:18:40;;;;;;;61.27;31.30;;;16.00;99.90;;;;;;4953147;28;20189;-59
2023/05/22 09:21:10;;;;;;;65.40;31.33;;;16.00;99.90;;;;;;4954668;28;20200;-59
2023/05/22 09:24:00;;;;;;;68.77;32.23;;;16.20;99.90;;;;;;4951720;29;20568;-59
2023/05/22 09:26:29;;;;;;;72.43;33.10;;;16.20;99.90;;;;;;4954564;28;20474;-59
2023/05/22 09:28:59;;;;;;;74.03;34.70;;;16.10;99.90;;;;;;4954794;28;20223;-59
2023/05/22 09:31:29;;;;;;;76.37;35.33;;;16.00;99.90;;;;;;4954962;28;20661;-59
2023/05/22 09:33:59;;;;;;;58.50;32.20;;;16.10;99.90;;;;;;4955092;28;20225;-59
2023/05/22 09:36:33;;;;;;;63.60;30.93;;;16.20;99.90;;;;;;4947895;28;20610;-60
2023/05/22 09:39:03;;;;;;;61.23;30.30;;;16.30;99.90;;;;;;4959687;28;20215;-59
2023/05/22 09:41:36;;;;;;;60.27;29.10;;;16.30;99.90;;;;;;4954617;28;20227;-59
2023/05/22 09:44:12;;;;;;;56.77;29.67;;;16.40;99.90;;;;;;4954623;28;20250;-59
2023/05/22 09:46:42;;;;;;;61.43;30.70;;;16.50;99.90;;;;;;4954697;28;20307;-59
2023/05/22 09:49:12;;;;;;;54.23;28.60;;;16.50;99.90;;;;;;4961116;28;20226;-59
2023/05/22 09:51:47;;;;;;;61.47;30.10;;;16.70;99.90;;;;;;4960870;28;20673;-59
2023/05/22 09:54:18;;;;;;;58.80;28.47;;;16.70;99.90;;;;;;4955445;28;20194;-60
2023/05/22 09:56:49;;;;;;;55.63;29.77;;;16.70;99.90;;;;;;4935384;28;20253;-59
2023/05/22 09:59:22;;;;;;;61.07;32.40;;;16.80;99.90;;;;;;4951753;28;20242;-59
2023/05/22 10:01:52;;;;;;;62.20;31.93;;;16.80;99.90;;;;;;4954293;28;20279;-59
2023/05/22 10:04:23;;;;;;;65.00;31.57;;;16.80;99.90;;;;;;4953426;28;20248;-60
2023/05/22 10:06:53;;;;;;;61.43;32.37;;;16.80;99.90;;;;;;4954217;28;20326;-60
2023/05/22 10:09:29;;;;;;;66.03;31.90;;;16.70;99.90;;;;;;4955936;28;20207;-59
2023/05/22 10:12:03;;;;;;;68.23;31.80;;;16.80;99.90;;;;;;4953218;29;20306;-60
2023/05/22 10:14:32;;;;;;;56.57;29.33;;;16.90;99.90;;;;;;4954048;28;20231;-59
2023/05/22 10:17:03;;;;;;;54.07;29.50;;;17.10;99.90;;;;;;4955871;28;20234;-59
2023/05/22 10:19:35;;;;;;;57.13;29.20;;;17.10;99.90;;;;;;4959985;28;20222;-59
2023/05/22 10:22:09;;;;;;;56.53;28.33;;;17.20;99.90;;;;;;4968529;28;20241;-59
2023/05/22 10:24:38;;;;;;;53.00;27.23;;;17.30;99.90;;;;;;4964750;28;20219;-60
2023/05/22 10:27:07;;;;;;;54.60;27.30;;;17.50;99.90;;;;;;4958569;28;20199;-59
2023/05/22 10:29:42;;;;;;;58.43;29.30;;;17.60;99.90;;;;;;4958202;28;20249;-59
2023/05/22 10:32:20;;;;;;;58.00;29.60;;;17.60;99.90;;;;;;4951665;28;20227;-59
2023/05/22 10:34:59;;;;;;;52.70;27.27;;;17.50;99.90;;;;;;4962328;28;20241;-60
2023/05/22 10:37:43;;;;;;;59.33;28.83;;;17.50;99.90;;;;;;4965827;28;20230;-59
2023/05/22 10:40:14;;;;;;;51.87;27.30;;;17.50;99.90;;;;;;4958246;28;20224;-59
2023/05/22 10:42:43;;;;;;;46.73;27.07;;;17.50;99.90;;;;;;4958050;28;20235;-60
2023/05/22 10:45:12;;;;;;;49.47;26.63;;;17.50;99.90;;;;;;4967577;28;20206;-61
2023/05/22 10:47:40;;;;;;;48.97;26.83;;;17.40;99.90;;;;;;4975279;28;20226;-59
2023/05/22 10:50:12;;;;;;;54.67;27.83;;;17.40;99.90;;;;;;4957418;28;20228;-59
2023/05/22 10:52:40;;;;;;;51.53;26.23;;;17.50;99.90;;;;;;4946649;28;20278;-59
2023/05/22 10:55:10;;;;;;;53.03;25.57;;;17.50;99.90;;;;;;4957793;28;20231;-59
2023/05/22 10:57:39;;;;;;;50.27;27.10;;;17.60;99.90;;;;;;4957365;28;20539;-59
2023/05/22 11:00:12;;;;;;;54.17;28.13;;;17.60;99.90;;;;;;4958392;28;20227;-59
2023/05/22 11:02:42;;;;;;;52.47;26.40;;;17.70;99.90;;;;;;4957679;28;20224;-60
2023/05/22 11:08:38;;;;;;;47.50;26.57;;;17.90;99.90;;;;;;4957025;28;20222;-60
2023/05/22 11:11:13;;;;;;;58.67;26.87;;;17.90;99.90;;;;;;4946366;28;20229;-60
2023/05/22 11:13:42;;;;;;;49.60;26.50;;;18.00;99.90;;;;;;4955155;28;20223;-60
2023/05/22 11:16:11;;;;;;;54.87;27.30;;;18.00;99.90;;;;;;4945827;28;20318;-59
2023/05/22 11:18:39;;;;;;;49.37;25.47;;;18.00;99.90;;;;;;4960993;28;20195;-59
2023/05/22 11:21:12;;;;;;;50.77;26.37;;;18.00;99.90;;;;;;4956886;28;20283;-59
2023/05/22 11:23:42;;;;;;;48.47;24.90;;;18.10;99.90;;;;;;4959997;28;20241;-59
2023/05/22 11:26:22;;;;;;;51.73;24.33;;;18.10;99.90;;;;;;4959814;28;20238;-60
2023/05/22 11:28:55;;;;;;;48.30;25.00;;;18.10;99.90;;;;;;4961069;28;20237;-59
2023/05/22 11:31:25;;;;;;;52.17;24.67;;;18.10;99.90;;;;;;4957745;28;20725;-59
2023/05/22 11:33:54;;;;;;;52.00;25.23;;;18.00;99.90;;;;;;4957375;28;20290;-59
2023/05/22 11:36:23;;;;;;;52.10;24.70;;;18.00;99.90;;;;;;4956295;28;20232;-60
2023/05/22 11:38:58;;;;;;;49.20;23.80;;;18.10;99.90;;;;;;4953659;28;20212;-60
2023/05/22 11:41:31;;;;;;;46.40;23.43;;;18.10;99.90;;;;;;4956997;28;20230;-59
2023/05/22 11:44:02;;;;;;;50.67;24.57;;;18.20;99.90;;;;;;4957172;28;20230;-60
2023/05/22 11:46:31;;;;;;;54.23;23.70;;;18.30;99.90;;;;;;4956913;28;20218;-59
2023/05/22 11:48:59;;;;;;;44.27;22.83;;;18.40;99.90;;;;;;4956702;28;20246;-59
2023/05/22 11:51:28;;;;;;;39.57;20.60;;;18.40;99.90;;;;;;4956542;28;20193;-59
2023/05/22 11:53:57;;;;;;;48.07;22.67;;;18.40;99.90;;;;;;4957374;28;20200;-59
2023/05/22 11:56:26;;;;;;;48.20;22.43;;;18.30;99.90;;;;;;4956501;28;20216;-59
2023/05/22 11:58:54;;;;;;;42.13;22.33;;;18.40;99.90;;;;;;4952650;28;20220;-59
2023/05/22 12:01:22;;;;;;;44.03;21.83;;;18.30;99.90;;;;;;4956488;28;20714;-59
2023/05/22 12:03:51;;;;;;;41.63;20.30;;;18.50;99.90;;;;;;4956105;28;20243;-59
2023/05/22 12:06:19;;;;;;;42.20;21.33;;;18.70;99.90;;;;;;4956701;28;20223;-60
2023/05/22 12:08:48;;;;;;;41.83;19.37;;;18.90;99.90;;;;;;4956941;28;20275;-60
2023/05/22 12:11:17;;;;;;;34.10;18.77;;;19.10;99.90;;;;;;4955887;28;20244;-59
2023/05/22 12:13:46;;;;;;;31.03;17.97;;;19.40;99.90;;;;;;4954507;28;20226;-59
2023/05/22 12:16:20;;;;;;;37.83;19.40;;;19.80;99.90;;;;;;4952012;28;20250;-59
2023/05/22 12:18:52;;;;;;;45.20;20.23;;;19.80;99.90;;;;;;4947081;28;20238;-59
2023/05/22 12:21:20;;;;;;;35.17;18.60;;;19.80;99.90;;;;;;4947093;29;20188;-59
2023/05/22 12:23:49;;;;;;;37.93;18.20;;;19.70;99.90;;;;;;4955670;28;20228;-59
2023/05/22 12:26:20;;;;;;;39.37;18.23;;;19.80;99.90;;;;;;4955744;28;20232;-59
2023/05/22 12:28:52;;;;;;;46.23;18.47;;;19.70;99.90;;;;;;4956092;28;20268;-60
2023/05/22 12:31:21;;;;;;;40.47;18.13;;;19.60;99.90;;;;;;4956225;28;20220;-59
2023/05/22 12:33:52;;;;;;;42.23;18.37;;;19.50;99.90;;;;;;4955681;28;20232;-59
2023/05/22 12:36:21;;;;;;;43.67;19.83;;;19.30;99.90;;;;;;4955910;28;20254;-60
2023/05/22 12:38:50;;;;;;;37.27;18.90;;;19.20;99.90;;;;;;4955258;28;20231;-59
2023/05/22 12:41:20;;;;;;;45.53;20.07;;;19.20;99.90;;;;;;4944875;28;20252;-59
2023/05/22 12:43:49;;;;;;;38.67;20.17;;;19.30;99.90;;;;;;4955391;28;20220;-59